sensor_id;sensor_type;location;lat;lon;timestamp;P1;durP1;ratioP1;P2;durP2;ratioP2
49101;SDS011;34913;47.520;19.186;2023-09-19T00:01:39;4.68;;;3.65;;
49101;SDS011;34913;47.520;19.186;2023-09-19T00:04:05;6.90;;;3.97;;
49101;SDS011;34913;47.520;19.186;2023-09-19T00:06:35;5.25;;;4.00;;
49101;SDS011;34913;47.520;19.186;2023-09-19T00:09:02;7.95;;;3.97;;
49101;SDS011;34913;47.520;19.186;2023-09-19T00:11:28;6.28;;;3.70;;
49101;SDS011;34913;47.520;19.186;2023-09-19T00:13:54;7.65;;;3.53;;
49101;SDS011;34913;47.520;19.186;2023-09-19T00:16:19;5.20;;;3.83;;
49101;SDS011;34913;47.520;19.186;2023-09-19T00:18:45;5.15;;;4.00;;
49101;SDS011;34913;47.520;19.186;2023-09-19T00:21:11;5.03;;;3.67;;
49101;SDS011;34913;47.520;19.186;2023-09-19T00:23:37;5.82;;;3.65;;
49101;SDS011;34913;47.520;19.186;2023-09-19T00:26:03;5.82;;;3.63;;
49101;SDS011;34913;47.520;19.186;2023-09-19T00:28:29;4.65;;;3.92;;
49101;SDS011;34913;47.520;19.186;2023-09-19T00:30:55;5.00;;;3.70;;
49101;SDS011;34913;47.520;19.186;2023-09-19T00:33:21;6.38;;;3.80;;
49101;SDS011;34913;47.520;19.186;2023-09-19T00:35:56;6.63;;;3.90;;
49101;SDS011;34913;47.520;19.186;2023-09-19T00:38:23;5.03;;;3.90;;
49101;SDS011;34913;47.520;19.186;2023-09-19T00:40:52;8.43;;;4.13;;
49101;SDS011;34913;47.520;19.186;2023-09-19T00:43:19;5.63;;;4.18;;
49101;SDS011;34913;47.520;19.186;2023-09-19T00:45:46;6.25;;;3.63;;
49101;SDS011;34913;47.520;19.186;2023-09-19T00:48:14;6.35;;;4.00;;
49101;SDS011;34913;47.520;19.186;2023-09-19T00:50:41;6.93;;;3.90;;
49101;SDS011;34913;47.520;19.186;2023-09-19T00:53:09;8.55;;;3.80;;
49101;SDS011;34913;47.520;19.186;2023-09-19T00:55:38;5.65;;;3.85;;
49101;SDS011;34913;47.520;19.186;2023-09-19T00:58:04;5.53;;;4.20;;
49101;SDS011;34913;47.520;19.186;2023-09-19T01:00:35;5.88;;;4.45;;
49101;SDS011;34913;47.520;19.186;2023-09-19T01:03:01;4.15;;;3.70;;
49101;SDS011;34913;47.520;19.186;2023-09-19T01:05:27;6.95;;;4.03;;
49101;SDS011;34913;47.520;19.186;2023-09-19T01:07:53;4.78;;;3.90;;
49101;SDS011;34913;47.520;19.186;2023-09-19T01:10:18;7.38;;;4.30;;
49101;SDS011;34913;47.520;19.186;2023-09-19T01:13:29;9.95;;;4.15;;
49101;SDS011;34913;47.520;19.186;2023-09-19T01:18:50;7.60;;;4.20;;
49101;SDS011;34913;47.520;19.186;2023-09-19T01:24:22;7.88;;;4.20;;
49101;SDS011;34913;47.520;19.186;2023-09-19T01:29:41;6.53;;;4.28;;
49101;SDS011;34913;47.520;19.186;2023-09-19T01:32:10;5.80;;;4.53;;
49101;SDS011;34913;47.520;19.186;2023-09-19T01:34:51;6.50;;;4.68;;
49101;SDS011;34913;47.520;19.186;2023-09-19T01:37:19;4.97;;;4.13;;
49101;SDS011;34913;47.520;19.186;2023-09-19T01:40:02;5.43;;;4.43;;
49101;SDS011;34913;47.520;19.186;2023-09-19T01:45:26;5.90;;;4.30;;
49101;SDS011;34913;47.520;19.186;2023-09-19T01:47:53;6.72;;;3.90;;
49101;SDS011;34913;47.520;19.186;2023-09-19T01:50:31;5.72;;;4.03;;
49101;SDS011;34913;47.520;19.186;2023-09-19T01:55:55;6.13;;;4.07;;
49101;SDS011;34913;47.520;19.186;2023-09-19T01:59:06;5.65;;;4.53;;
49101;SDS011;34913;47.520;19.186;2023-09-19T02:01:15;8.10;;;4.10;;
49101;SDS011;34913;47.520;19.186;2023-09-19T02:06:15;7.05;;;4.13;;
49101;SDS011;34913;47.520;19.186;2023-09-19T02:08:42;11.05;;;4.30;;
49101;SDS011;34913;47.520;19.186;2023-09-19T02:11:08;7.30;;;4.55;;
49101;SDS011;34913;47.520;19.186;2023-09-19T02:13:33;5.30;;;4.15;;
49101;SDS011;34913;47.520;19.186;2023-09-19T02:15:59;4.68;;;3.90;;
49101;SDS011;34913;47.520;19.186;2023-09-19T02:18:25;7.72;;;4.18;;
49101;SDS011;34913;47.520;19.186;2023-09-19T02:20:52;7.80;;;4.70;;
49101;SDS011;34913;47.520;19.186;2023-09-19T02:23:18;5.95;;;4.50;;
49101;SDS011;34913;47.520;19.186;2023-09-19T02:25:51;9.10;;;4.45;;
49101;SDS011;34913;47.520;19.186;2023-09-19T02:28:20;7.15;;;4.80;;
49101;SDS011;34913;47.520;19.186;2023-09-19T02:30:48;9.13;;;4.60;;
49101;SDS011;34913;47.520;19.186;2023-09-19T02:33:15;6.90;;;4.85;;
49101;SDS011;34913;47.520;19.186;2023-09-19T02:35:42;7.47;;;4.63;;
49101;SDS011;34913;47.520;19.186;2023-09-19T02:38:07;6.10;;;4.70;;
49101;SDS011;34913;47.520;19.186;2023-09-19T02:40:33;7.32;;;4.80;;
49101;SDS011;34913;47.520;19.186;2023-09-19T02:43:00;8.50;;;4.80;;
49101;SDS011;34913;47.520;19.186;2023-09-19T02:45:27;6.22;;;4.40;;
49101;SDS011;34913;47.520;19.186;2023-09-19T02:47:53;8.82;;;5.03;;
49101;SDS011;34913;47.520;19.186;2023-09-19T02:50:19;7.20;;;4.85;;
49101;SDS011;34913;47.520;19.186;2023-09-19T02:52:45;5.63;;;4.50;;
49101;SDS011;34913;47.520;19.186;2023-09-19T02:55:15;11.52;;;4.70;;
49101;SDS011;34913;47.520;19.186;2023-09-19T02:57:45;8.63;;;4.97;;
49101;SDS011;34913;47.520;19.186;2023-09-19T03:00:14;6.55;;;4.50;;
49101;SDS011;34913;47.520;19.186;2023-09-19T03:02:41;5.20;;;4.70;;
49101;SDS011;34913;47.520;19.186;2023-09-19T03:05:07;7.03;;;4.47;;
49101;SDS011;34913;47.520;19.186;2023-09-19T03:07:33;7.35;;;4.90;;
49101;SDS011;34913;47.520;19.186;2023-09-19T03:09:58;7.50;;;4.82;;
49101;SDS011;34913;47.520;19.186;2023-09-19T03:12:25;8.18;;;5.30;;
49101;SDS011;34913;47.520;19.186;2023-09-19T03:14:51;6.80;;;4.45;;
49101;SDS011;34913;47.520;19.186;2023-09-19T03:17:16;9.75;;;4.95;;
49101;SDS011;34913;47.520;19.186;2023-09-19T03:19:44;9.32;;;4.82;;
49101;SDS011;34913;47.520;19.186;2023-09-19T03:22:10;8.40;;;5.10;;
49101;SDS011;34913;47.520;19.186;2023-09-19T03:24:35;12.38;;;4.78;;
49101;SDS011;34913;47.520;19.186;2023-09-19T03:27:02;6.28;;;4.75;;
49101;SDS011;34913;47.520;19.186;2023-09-19T03:29:28;7.65;;;4.93;;
49101;SDS011;34913;47.520;19.186;2023-09-19T03:31:54;6.70;;;4.85;;
49101;SDS011;34913;47.520;19.186;2023-09-19T03:34:20;8.55;;;5.03;;
49101;SDS011;34913;47.520;19.186;2023-09-19T03:36:45;7.78;;;4.70;;
49101;SDS011;34913;47.520;19.186;2023-09-19T03:39:11;5.20;;;4.45;;
49101;SDS011;34913;47.520;19.186;2023-09-19T03:41:37;6.95;;;4.80;;
49101;SDS011;34913;47.520;19.186;2023-09-19T03:44:02;7.97;;;4.75;;
49101;SDS011;34913;47.520;19.186;2023-09-19T03:46:28;6.55;;;4.88;;
49101;SDS011;34913;47.520;19.186;2023-09-19T03:48:53;7.38;;;5.15;;
49101;SDS011;34913;47.520;19.186;2023-09-19T03:51:20;7.80;;;4.90;;
49101;SDS011;34913;47.520;19.186;2023-09-19T03:53:45;7.13;;;5.00;;
49101;SDS011;34913;47.520;19.186;2023-09-19T03:56:11;7.10;;;5.00;;
49101;SDS011;34913;47.520;19.186;2023-09-19T03:58:36;8.88;;;4.80;;
49101;SDS011;34913;47.520;19.186;2023-09-19T04:01:05;8.35;;;4.90;;
49101;SDS011;34913;47.520;19.186;2023-09-19T04:03:32;9.23;;;5.43;;
49101;SDS011;34913;47.520;19.186;2023-09-19T04:06:15;14.05;;;5.05;;
49101;SDS011;34913;47.520;19.186;2023-09-19T04:08:41;7.18;;;5.15;;
49101;SDS011;34913;47.520;19.186;2023-09-19T04:11:06;7.20;;;5.15;;
49101;SDS011;34913;47.520;19.186;2023-09-19T04:13:32;8.38;;;5.07;;
49101;SDS011;34913;47.520;19.186;2023-09-19T04:15:58;8.10;;;4.90;;
49101;SDS011;34913;47.520;19.186;2023-09-19T04:18:23;10.20;;;5.57;;
49101;SDS011;34913;47.520;19.186;2023-09-19T04:20:49;8.25;;;5.38;;
49101;SDS011;34913;47.520;19.186;2023-09-19T04:23:15;11.48;;;5.82;;
49101;SDS011;34913;47.520;19.186;2023-09-19T04:25:42;10.93;;;5.78;;
49101;SDS011;34913;47.520;19.186;2023-09-19T04:28:07;8.63;;;5.85;;
49101;SDS011;34913;47.520;19.186;2023-09-19T04:30:33;7.50;;;5.97;;
49101;SDS011;34913;47.520;19.186;2023-09-19T04:32:59;7.97;;;5.72;;
49101;SDS011;34913;47.520;19.186;2023-09-19T04:35:27;7.93;;;5.28;;
49101;SDS011;34913;47.520;19.186;2023-09-19T04:37:56;9.15;;;5.95;;
49101;SDS011;34913;47.520;19.186;2023-09-19T04:40:22;9.48;;;5.85;;
49101;SDS011;34913;47.520;19.186;2023-09-19T04:42:54;8.95;;;5.90;;
49101;SDS011;34913;47.520;19.186;2023-09-19T04:45:22;11.75;;;6.00;;
49101;SDS011;34913;47.520;19.186;2023-09-19T04:47:51;8.77;;;5.20;;
49101;SDS011;34913;47.520;19.186;2023-09-19T04:50:17;9.32;;;5.18;;
49101;SDS011;34913;47.520;19.186;2023-09-19T04:52:43;9.00;;;4.60;;
49101;SDS011;34913;47.520;19.186;2023-09-19T04:55:16;7.15;;;4.20;;
49101;SDS011;34913;47.520;19.186;2023-09-19T04:57:43;4.88;;;3.45;;
49101;SDS011;34913;47.520;19.186;2023-09-19T05:00:11;6.07;;;3.50;;
49101;SDS011;34913;47.520;19.186;2023-09-19T05:02:42;4.82;;;2.90;;
49101;SDS011;34913;47.520;19.186;2023-09-19T05:05:08;5.72;;;3.35;;
49101;SDS011;34913;47.520;19.186;2023-09-19T05:07:55;5.47;;;2.75;;
49101;SDS011;34913;47.520;19.186;2023-09-19T05:10:20;6.47;;;2.70;;
49101;SDS011;34913;47.520;19.186;2023-09-19T05:12:46;3.65;;;2.42;;
49101;SDS011;34913;47.520;19.186;2023-09-19T05:15:13;2.78;;;1.95;;
49101;SDS011;34913;47.520;19.186;2023-09-19T05:17:42;3.65;;;2.17;;
49101;SDS011;34913;47.520;19.186;2023-09-19T05:22:42;2.08;;;1.60;;
49101;SDS011;34913;47.520;19.186;2023-09-19T05:25:08;3.55;;;1.95;;
49101;SDS011;34913;47.520;19.186;2023-09-19T05:27:41;1.73;;;1.10;;
49101;SDS011;34913;47.520;19.186;2023-09-19T05:30:07;5.78;;;1.27;;
49101;SDS011;34913;47.520;19.186;2023-09-19T05:32:33;1.73;;;1.00;;
49101;SDS011;34913;47.520;19.186;2023-09-19T05:34:58;2.55;;;0.77;;
49101;SDS011;34913;47.520;19.186;2023-09-19T05:37:24;3.00;;;1.00;;
49101;SDS011;34913;47.520;19.186;2023-09-19T05:39:51;1.60;;;0.77;;
49101;SDS011;34913;47.520;19.186;2023-09-19T05:42:18;1.20;;;0.80;;
49101;SDS011;34913;47.520;19.186;2023-09-19T05:44:43;0.70;;;0.70;;
49101;SDS011;34913;47.520;19.186;2023-09-19T05:47:08;1.95;;;0.73;;
49101;SDS011;34913;47.520;19.186;2023-09-19T05:49:37;1.50;;;0.80;;
49101;SDS011;34913;47.520;19.186;2023-09-19T05:52:06;3.33;;;0.70;;
49101;SDS011;34913;47.520;19.186;2023-09-19T05:54:32;0.63;;;0.60;;
49101;SDS011;34913;47.520;19.186;2023-09-19T05:56:59;0.93;;;0.60;;
49101;SDS011;34913;47.520;19.186;2023-09-19T05:59:25;1.05;;;0.70;;
49101;SDS011;34913;47.520;19.186;2023-09-19T06:01:51;0.90;;;0.50;;
49101;SDS011;34913;47.520;19.186;2023-09-19T06:04:17;3.10;;;0.60;;
49101;SDS011;34913;47.520;19.186;2023-09-19T06:06:44;0.85;;;0.75;;
49101;SDS011;34913;47.520;19.186;2023-09-19T06:09:10;1.35;;;0.63;;
49101;SDS011;34913;47.520;19.186;2023-09-19T06:11:35;1.85;;;0.80;;
49101;SDS011;34913;47.520;19.186;2023-09-19T06:14:01;1.30;;;0.63;;
49101;SDS011;34913;47.520;19.186;2023-09-19T06:16:28;0.55;;;0.55;;
49101;SDS011;34913;47.520;19.186;2023-09-19T06:21:27;1.40;;;0.60;;
49101;SDS011;34913;47.520;19.186;2023-09-19T06:23:53;0.60;;;0.60;;
49101;SDS011;34913;47.520;19.186;2023-09-19T06:26:19;0.60;;;0.60;;
49101;SDS011;34913;47.520;19.186;2023-09-19T06:28:44;2.20;;;0.57;;
49101;SDS011;34913;47.520;19.186;2023-09-19T06:31:10;1.48;;;0.80;;
49101;SDS011;34913;47.520;19.186;2023-09-19T06:33:38;0.68;;;0.50;;
49101;SDS011;34913;47.520;19.186;2023-09-19T06:36:07;0.73;;;0.60;;
49101;SDS011;34913;47.520;19.186;2023-09-19T06:38:33;1.58;;;0.60;;
49101;SDS011;34913;47.520;19.186;2023-09-19T06:41:02;1.60;;;0.88;;
49101;SDS011;34913;47.520;19.186;2023-09-19T06:43:32;0.63;;;0.63;;
49101;SDS011;34913;47.520;19.186;2023-09-19T06:45:58;2.25;;;0.70;;
49101;SDS011;34913;47.520;19.186;2023-09-19T06:48:25;1.00;;;0.70;;
49101;SDS011;34913;47.520;19.186;2023-09-19T06:50:52;0.88;;;0.70;;
49101;SDS011;34913;47.520;19.186;2023-09-19T06:53:18;1.13;;;0.70;;
49101;SDS011;34913;47.520;19.186;2023-09-19T06:55:44;1.15;;;0.68;;
49101;SDS011;34913;47.520;19.186;2023-09-19T06:58:10;0.68;;;0.50;;
49101;SDS011;34913;47.520;19.186;2023-09-19T07:00:36;1.27;;;0.77;;
49101;SDS011;34913;47.520;19.186;2023-09-19T07:05:29;3.03;;;0.90;;
49101;SDS011;34913;47.520;19.186;2023-09-19T07:07:56;0.82;;;0.68;;
49101;SDS011;34913;47.520;19.186;2023-09-19T07:10:26;2.28;;;0.98;;
49101;SDS011;34913;47.520;19.186;2023-09-19T07:15:24;2.88;;;1.00;;
49101;SDS011;34913;47.520;19.186;2023-09-19T07:17:51;1.88;;;0.80;;
49101;SDS011;34913;47.520;19.186;2023-09-19T07:20:18;1.23;;;0.88;;
49101;SDS011;34913;47.520;19.186;2023-09-19T07:22:44;2.17;;;1.30;;
49101;SDS011;34913;47.520;19.186;2023-09-19T07:25:10;1.00;;;0.70;;
49101;SDS011;34913;47.520;19.186;2023-09-19T07:27:35;0.57;;;0.55;;
49101;SDS011;34913;47.520;19.186;2023-09-19T07:30:01;0.70;;;0.70;;
49101;SDS011;34913;47.520;19.186;2023-09-19T07:32:26;1.85;;;0.60;;
49101;SDS011;34913;47.520;19.186;2023-09-19T07:34:52;2.15;;;0.70;;
49101;SDS011;34913;47.520;19.186;2023-09-19T07:37:18;1.88;;;0.80;;
49101;SDS011;34913;47.520;19.186;2023-09-19T07:39:43;0.90;;;0.52;;
49101;SDS011;34913;47.520;19.186;2023-09-19T07:42:09;1.33;;;0.73;;
49101;SDS011;34913;47.520;19.186;2023-09-19T07:44:36;1.23;;;0.70;;
49101;SDS011;34913;47.520;19.186;2023-09-19T07:47:02;0.60;;;0.60;;
49101;SDS011;34913;47.520;19.186;2023-09-19T07:49:28;2.08;;;0.68;;
49101;SDS011;34913;47.520;19.186;2023-09-19T07:51:53;0.88;;;0.70;;
49101;SDS011;34913;47.520;19.186;2023-09-19T07:54:19;1.52;;;0.68;;
49101;SDS011;34913;47.520;19.186;2023-09-19T07:56:46;0.90;;;0.73;;
49101;SDS011;34913;47.520;19.186;2023-09-19T07:59:11;1.23;;;0.60;;
49101;SDS011;34913;47.520;19.186;2023-09-19T08:01:38;1.00;;;0.70;;
49101;SDS011;34913;47.520;19.186;2023-09-19T08:04:06;1.23;;;0.57;;
49101;SDS011;34913;47.520;19.186;2023-09-19T08:06:32;1.00;;;0.80;;
49101;SDS011;34913;47.520;19.186;2023-09-19T08:08:57;1.10;;;0.70;;
49101;SDS011;34913;47.520;19.186;2023-09-19T08:11:23;1.15;;;0.80;;
49101;SDS011;34913;47.520;19.186;2023-09-19T08:13:49;1.48;;;0.82;;
49101;SDS011;34913;47.520;19.186;2023-09-19T08:16:15;1.05;;;0.90;;
49101;SDS011;34913;47.520;19.186;2023-09-19T08:18:43;3.42;;;0.90;;
49101;SDS011;34913;47.520;19.186;2023-09-19T08:21:12;1.70;;;0.93;;
49101;SDS011;34913;47.520;19.186;2023-09-19T08:23:39;1.30;;;0.80;;
49101;SDS011;34913;47.520;19.186;2023-09-19T08:26:06;1.23;;;1.00;;
49101;SDS011;34913;47.520;19.186;2023-09-19T08:28:34;1.25;;;1.00;;
49101;SDS011;34913;47.520;19.186;2023-09-19T08:31:03;1.30;;;0.80;;
49101;SDS011;34913;47.520;19.186;2023-09-19T08:33:34;1.80;;;1.10;;
49101;SDS011;34913;47.520;19.186;2023-09-19T08:36:00;1.67;;;0.80;;
49101;SDS011;34913;47.520;19.186;2023-09-19T08:38:30;1.80;;;0.93;;
49101;SDS011;34913;47.520;19.186;2023-09-19T08:40:58;1.73;;;1.00;;
49101;SDS011;34913;47.520;19.186;2023-09-19T08:43:25;2.05;;;0.90;;
49101;SDS011;34913;47.520;19.186;2023-09-19T08:45:52;0.82;;;0.80;;
49101;SDS011;34913;47.520;19.186;2023-09-19T08:48:28;1.17;;;0.90;;
49101;SDS011;34913;47.520;19.186;2023-09-19T08:50:56;3.17;;;0.90;;
49101;SDS011;34913;47.520;19.186;2023-09-19T08:56:11;1.65;;;0.82;;
49101;SDS011;34913;47.520;19.186;2023-09-19T08:59:00;1.92;;;0.98;;
49101;SDS011;34913;47.520;19.186;2023-09-19T09:01:34;3.20;;;1.10;;
49101;SDS011;34913;47.520;19.186;2023-09-19T09:04:01;1.33;;;0.82;;
49101;SDS011;34913;47.520;19.186;2023-09-19T09:06:27;3.03;;;1.05;;
49101;SDS011;34913;47.520;19.186;2023-09-19T09:08:54;1.02;;;0.95;;
49101;SDS011;34913;47.520;19.186;2023-09-19T09:11:20;1.00;;;0.90;;
49101;SDS011;34913;47.520;19.186;2023-09-19T09:13:46;3.30;;;1.10;;
49101;SDS011;34913;47.520;19.186;2023-09-19T09:16:12;1.77;;;0.90;;
49101;SDS011;34913;47.520;19.186;2023-09-19T09:18:39;1.02;;;0.82;;
49101;SDS011;34913;47.520;19.186;2023-09-19T09:21:05;2.45;;;1.48;;
49101;SDS011;34913;47.520;19.186;2023-09-19T09:23:31;1.45;;;0.90;;
49101;SDS011;34913;47.520;19.186;2023-09-19T09:25:59;2.42;;;1.10;;
49101;SDS011;34913;47.520;19.186;2023-09-19T09:28:28;0.90;;;0.80;;
49101;SDS011;34913;47.520;19.186;2023-09-19T09:30:56;2.53;;;0.93;;
49101;SDS011;34913;47.520;19.186;2023-09-19T09:33:23;1.88;;;1.00;;
49101;SDS011;34913;47.520;19.186;2023-09-19T09:38:25;1.30;;;1.13;;
49101;SDS011;34913;47.520;19.186;2023-09-19T09:40:57;2.03;;;0.98;;
49101;SDS011;34913;47.520;19.186;2023-09-19T09:49:03;2.47;;;0.90;;
49101;SDS011;34913;47.520;19.186;2023-09-19T09:54:58;3.58;;;1.10;;
49101;SDS011;34913;47.520;19.186;2023-09-19T09:57:26;0.85;;;0.70;;
49101;SDS011;34913;47.520;19.186;2023-09-19T09:59:58;2.92;;;0.93;;
49101;SDS011;34913;47.520;19.186;2023-09-19T10:02:40;4.03;;;1.10;;
49101;SDS011;34913;47.520;19.186;2023-09-19T10:05:13;3.05;;;1.13;;
49101;SDS011;34913;47.520;19.186;2023-09-19T10:07:55;2.63;;;0.95;;
49101;SDS011;34913;47.520;19.186;2023-09-19T10:13:09;1.42;;;1.00;;
49101;SDS011;34913;47.520;19.186;2023-09-19T10:15:43;1.48;;;1.30;;
49101;SDS011;34913;47.520;19.186;2023-09-19T10:18:24;1.50;;;1.00;;
49101;SDS011;34913;47.520;19.186;2023-09-19T10:20:51;1.42;;;1.10;;
49101;SDS011;34913;47.520;19.186;2023-09-19T10:23:18;2.70;;;0.80;;
49101;SDS011;34913;47.520;19.186;2023-09-19T10:25:48;1.45;;;1.00;;
49101;SDS011;34913;47.520;19.186;2023-09-19T10:28:16;1.67;;;1.10;;
49101;SDS011;34913;47.520;19.186;2023-09-19T10:30:47;1.63;;;1.10;;
49101;SDS011;34913;47.520;19.186;2023-09-19T10:33:15;1.63;;;0.95;;
49101;SDS011;34913;47.520;19.186;2023-09-19T10:35:43;1.50;;;1.00;;
49101;SDS011;34913;47.520;19.186;2023-09-19T10:38:11;1.65;;;0.90;;
49101;SDS011;34913;47.520;19.186;2023-09-19T10:40:38;2.95;;;1.30;;
49101;SDS011;34913;47.520;19.186;2023-09-19T10:43:17;5.95;;;1.40;;
49101;SDS011;34913;47.520;19.186;2023-09-19T10:45:46;1.83;;;1.15;;
49101;SDS011;34913;47.520;19.186;2023-09-19T10:48:14;2.05;;;1.45;;
49101;SDS011;34913;47.520;19.186;2023-09-19T10:53:32;2.25;;;1.17;;
49101;SDS011;34913;47.520;19.186;2023-09-19T10:56:36;1.65;;;1.40;;
49101;SDS011;34913;47.520;19.186;2023-09-19T10:59:08;2.25;;;1.27;;
49101;SDS011;34913;47.520;19.186;2023-09-19T11:01:56;1.98;;;1.20;;
49101;SDS011;34913;47.520;19.186;2023-09-19T11:04:29;3.30;;;1.85;;
49101;SDS011;34913;47.520;19.186;2023-09-19T11:09:51;3.70;;;1.48;;
49101;SDS011;34913;47.520;19.186;2023-09-19T11:15:08;1.90;;;1.35;;
49101;SDS011;34913;47.520;19.186;2023-09-19T11:17:36;2.58;;;1.48;;
49101;SDS011;34913;47.520;19.186;2023-09-19T11:30:42;1.42;;;1.17;;
49101;SDS011;34913;47.520;19.186;2023-09-19T11:33:25;1.75;;;1.10;;
49101;SDS011;34913;47.520;19.186;2023-09-19T11:43:46;1.27;;;1.10;;
49101;SDS011;34913;47.520;19.186;2023-09-19T11:46:12;1.73;;;1.08;;
49101;SDS011;34913;47.520;19.186;2023-09-19T11:48:42;2.45;;;0.77;;
49101;SDS011;34913;47.520;19.186;2023-09-19T11:51:13;2.72;;;1.13;;
49101;SDS011;34913;47.520;19.186;2023-09-19T11:53:48;1.27;;;0.70;;
49101;SDS011;34913;47.520;19.186;2023-09-19T11:56:18;1.02;;;0.75;;
49101;SDS011;34913;47.520;19.186;2023-09-19T11:58:52;1.25;;;0.90;;
49101;SDS011;34913;47.520;19.186;2023-09-19T12:01:29;1.38;;;0.85;;
49101;SDS011;34913;47.520;19.186;2023-09-19T12:04:00;1.15;;;0.93;;
49101;SDS011;34913;47.520;19.186;2023-09-19T12:06:29;1.70;;;0.90;;
49101;SDS011;34913;47.520;19.186;2023-09-19T12:08:57;1.52;;;0.85;;
49101;SDS011;34913;47.520;19.186;2023-09-19T12:11:29;2.38;;;0.90;;
49101;SDS011;34913;47.520;19.186;2023-09-19T12:13:58;0.77;;;0.70;;
49101;SDS011;34913;47.520;19.186;2023-09-19T12:16:26;0.95;;;0.70;;
49101;SDS011;34913;47.520;19.186;2023-09-19T12:18:55;0.75;;;0.75;;
49101;SDS011;34913;47.520;19.186;2023-09-19T12:21:31;1.10;;;0.90;;
49101;SDS011;34913;47.520;19.186;2023-09-19T12:26:30;1.60;;;0.90;;
49101;SDS011;34913;47.520;19.186;2023-09-19T12:29:02;1.25;;;0.88;;
49101;SDS011;34913;47.520;19.186;2023-09-19T12:31:30;1.98;;;1.00;;
49101;SDS011;34913;47.520;19.186;2023-09-19T12:34:01;2.85;;;1.00;;
49101;SDS011;34913;47.520;19.186;2023-09-19T12:36:26;1.02;;;0.82;;
49101;SDS011;34913;47.520;19.186;2023-09-19T12:38:55;3.67;;;0.93;;
49101;SDS011;34913;47.520;19.186;2023-09-19T12:41:23;1.63;;;0.80;;
49101;SDS011;34913;47.520;19.186;2023-09-19T12:43:51;1.10;;;0.85;;
49101;SDS011;34913;47.520;19.186;2023-09-19T12:46:21;3.65;;;0.90;;
49101;SDS011;34913;47.520;19.186;2023-09-19T12:51:38;1.92;;;1.05;;
49101;SDS011;34913;47.520;19.186;2023-09-19T12:54:03;1.20;;;1.10;;
49101;SDS011;34913;47.520;19.186;2023-09-19T12:56:30;1.38;;;1.08;;
49101;SDS011;34913;47.520;19.186;2023-09-19T12:59:09;1.90;;;1.30;;
49101;SDS011;34913;47.520;19.186;2023-09-19T13:01:38;3.38;;;1.20;;
49101;SDS011;34913;47.520;19.186;2023-09-19T13:06:47;1.55;;;1.00;;
49101;SDS011;34913;47.520;19.186;2023-09-19T13:09:14;1.10;;;1.00;;
49101;SDS011;34913;47.520;19.186;2023-09-19T13:11:40;1.63;;;0.80;;
49101;SDS011;34913;47.520;19.186;2023-09-19T13:14:15;2.60;;;1.40;;
49101;SDS011;34913;47.520;19.186;2023-09-19T13:16:54;1.65;;;1.20;;
49101;SDS011;34913;47.520;19.186;2023-09-19T13:19:38;1.10;;;1.00;;
49101;SDS011;34913;47.520;19.186;2023-09-19T13:25:13;1.63;;;1.13;;
49101;SDS011;34913;47.520;19.186;2023-09-19T13:27:43;1.50;;;1.10;;
49101;SDS011;34913;47.520;19.186;2023-09-19T13:30:10;2.42;;;1.10;;
49101;SDS011;34913;47.520;19.186;2023-09-19T13:32:36;1.23;;;1.10;;
49101;SDS011;34913;47.520;19.186;2023-09-19T13:35:03;2.35;;;1.10;;
49101;SDS011;34913;47.520;19.186;2023-09-19T13:37:30;2.38;;;1.10;;
49101;SDS011;34913;47.520;19.186;2023-09-19T13:39:56;1.25;;;1.10;;
49101;SDS011;34913;47.520;19.186;2023-09-19T13:42:23;1.70;;;1.13;;
49101;SDS011;34913;47.520;19.186;2023-09-19T13:44:50;2.20;;;1.33;;
49101;SDS011;34913;47.520;19.186;2023-09-19T13:47:16;1.70;;;1.10;;
49101;SDS011;34913;47.520;19.186;2023-09-19T13:49:42;1.63;;;1.20;;
49101;SDS011;34913;47.520;19.186;2023-09-19T13:52:08;2.00;;;1.30;;
49101;SDS011;34913;47.520;19.186;2023-09-19T13:54:34;1.80;;;1.10;;
49101;SDS011;34913;47.520;19.186;2023-09-19T13:56:59;1.60;;;1.35;;
49101;SDS011;34913;47.520;19.186;2023-09-19T13:59:25;2.88;;;1.63;;
49101;SDS011;34913;47.520;19.186;2023-09-19T14:01:53;5.13;;;3.65;;
49101;SDS011;34913;47.520;19.186;2023-09-19T14:04:19;2.60;;;1.50;;
49101;SDS011;34913;47.520;19.186;2023-09-19T14:06:46;1.65;;;1.30;;
49101;SDS011;34913;47.520;19.186;2023-09-19T14:09:11;2.42;;;1.65;;
49101;SDS011;34913;47.520;19.186;2023-09-19T14:11:38;2.40;;;1.40;;
49101;SDS011;34913;47.520;19.186;2023-09-19T14:14:04;2.25;;;1.40;;
49101;SDS011;34913;47.520;19.186;2023-09-19T14:16:29;2.33;;;1.40;;
49101;SDS011;34913;47.520;19.186;2023-09-19T14:18:56;1.30;;;1.20;;
49101;SDS011;34913;47.520;19.186;2023-09-19T14:21:23;1.48;;;1.27;;
49101;SDS011;34913;47.520;19.186;2023-09-19T14:23:48;1.55;;;1.38;;
49101;SDS011;34913;47.520;19.186;2023-09-19T14:26:14;2.10;;;1.10;;
49101;SDS011;34913;47.520;19.186;2023-09-19T14:28:41;1.75;;;1.17;;
49101;SDS011;34913;47.520;19.186;2023-09-19T14:31:07;2.40;;;1.30;;
49101;SDS011;34913;47.520;19.186;2023-09-19T14:33:33;1.65;;;1.50;;
49101;SDS011;34913;47.520;19.186;2023-09-19T14:36:03;3.05;;;1.30;;
49101;SDS011;34913;47.520;19.186;2023-09-19T14:38:32;1.58;;;1.20;;
49101;SDS011;34913;47.520;19.186;2023-09-19T14:41:02;5.00;;;1.50;;
49101;SDS011;34913;47.520;19.186;2023-09-19T14:43:28;2.58;;;1.25;;
49101;SDS011;34913;47.520;19.186;2023-09-19T14:45:55;2.72;;;1.27;;
49101;SDS011;34913;47.520;19.186;2023-09-19T14:48:22;1.65;;;1.20;;
49101;SDS011;34913;47.520;19.186;2023-09-19T14:50:50;1.83;;;1.20;;
49101;SDS011;34913;47.520;19.186;2023-09-19T14:53:16;2.28;;;1.20;;
49101;SDS011;34913;47.520;19.186;2023-09-19T14:55:42;2.05;;;1.30;;
49101;SDS011;34913;47.520;19.186;2023-09-19T14:58:10;2.88;;;1.20;;
49101;SDS011;34913;47.520;19.186;2023-09-19T15:00:37;1.40;;;1.30;;
49101;SDS011;34913;47.520;19.186;2023-09-19T15:03:02;1.50;;;1.35;;
49101;SDS011;34913;47.520;19.186;2023-09-19T15:05:28;2.08;;;1.27;;
49101;SDS011;34913;47.520;19.186;2023-09-19T15:07:57;2.20;;;1.38;;
49101;SDS011;34913;47.520;19.186;2023-09-19T15:10:23;1.83;;;1.08;;
49101;SDS011;34913;47.520;19.186;2023-09-19T15:12:48;1.20;;;1.10;;
49101;SDS011;34913;47.520;19.186;2023-09-19T15:15:14;2.13;;;1.58;;
49101;SDS011;34913;47.520;19.186;2023-09-19T15:17:40;3.95;;;1.10;;
49101;SDS011;34913;47.520;19.186;2023-09-19T15:20:06;2.30;;;1.30;;
49101;SDS011;34913;47.520;19.186;2023-09-19T15:22:34;2.33;;;1.42;;
49101;SDS011;34913;47.520;19.186;2023-09-19T15:25:01;2.05;;;1.20;;
49101;SDS011;34913;47.520;19.186;2023-09-19T15:27:27;1.85;;;1.27;;
49101;SDS011;34913;47.520;19.186;2023-09-19T15:29:55;1.45;;;1.30;;
49101;SDS011;34913;47.520;19.186;2023-09-19T15:32:23;1.85;;;1.20;;
49101;SDS011;34913;47.520;19.186;2023-09-19T15:34:49;1.73;;;1.15;;
49101;SDS011;34913;47.520;19.186;2023-09-19T15:37:14;1.30;;;1.02;;
49101;SDS011;34913;47.520;19.186;2023-09-19T15:39:40;1.42;;;0.98;;
49101;SDS011;34913;47.520;19.186;2023-09-19T15:42:06;1.45;;;1.20;;
49101;SDS011;34913;47.520;19.186;2023-09-19T15:44:31;1.75;;;1.30;;
49101;SDS011;34913;47.520;19.186;2023-09-19T15:46:58;2.60;;;1.50;;
49101;SDS011;34913;47.520;19.186;2023-09-19T15:49:23;1.33;;;1.15;;
49101;SDS011;34913;47.520;19.186;2023-09-19T15:51:50;1.63;;;1.17;;
49101;SDS011;34913;47.520;19.186;2023-09-19T15:54:15;2.22;;;1.10;;
49101;SDS011;34913;47.520;19.186;2023-09-19T15:56:41;2.10;;;1.30;;
49101;SDS011;34913;47.520;19.186;2023-09-19T15:59:09;1.20;;;1.08;;
49101;SDS011;34913;47.520;19.186;2023-09-19T16:01:38;1.38;;;1.00;;